sensor_id;sensor_type;location;lat;lon;timestamp;P1;durP1;ratioP1;P2;durP2;ratioP2
41883;SDS011;27566;50.930;5.328;2023-07-22T00:01:51;12.50;;;7.50;;
41883;SDS011;27566;50.930;5.328;2023-07-22T00:04:16;13.50;;;7.22;;
41883;SDS011;27566;50.930;5.328;2023-07-22T00:06:42;13.25;;;8.27;;
41883;SDS011;27566;50.930;5.328;2023-07-22T00:09:08;13.18;;;7.90;;
41883;SDS011;27566;50.930;5.328;2023-07-22T00:11:35;12.98;;;7.57;;
41883;SDS011;27566;50.930;5.328;2023-07-22T00:14:01;15.38;;;8.38;;
41883;SDS011;27566;50.930;5.328;2023-07-22T00:16:27;15.30;;;8.70;;
41883;SDS011;27566;50.930;5.328;2023-07-22T00:18:54;12.57;;;6.85;;
41883;SDS011;27566;50.930;5.328;2023-07-22T00:21:20;15.20;;;8.73;;
41883;SDS011;27566;50.930;5.328;2023-07-22T00:23:46;11.75;;;7.13;;
41883;SDS011;27566;50.930;5.328;2023-07-22T00:26:11;13.27;;;7.65;;
41883;SDS011;27566;50.930;5.328;2023-07-22T00:28:37;13.30;;;8.00;;
41883;SDS011;27566;50.930;5.328;2023-07-22T00:31:04;15.60;;;9.40;;
41883;SDS011;27566;50.930;5.328;2023-07-22T00:33:29;13.73;;;7.13;;
41883;SDS011;27566;50.930;5.328;2023-07-22T00:35:56;12.02;;;8.15;;
41883;SDS011;27566;50.930;5.328;2023-07-22T00:38:22;13.50;;;7.78;;
41883;SDS011;27566;50.930;5.328;2023-07-22T00:40:47;11.57;;;7.47;;
41883;SDS011;27566;50.930;5.328;2023-07-22T00:43:15;13.65;;;8.15;;
41883;SDS011;27566;50.930;5.328;2023-07-22T00:45:41;13.93;;;8.68;;
41883;SDS011;27566;50.930;5.328;2023-07-22T00:48:08;14.15;;;8.60;;
41883;SDS011;27566;50.930;5.328;2023-07-22T00:50:34;14.93;;;8.82;;
41883;SDS011;27566;50.930;5.328;2023-07-22T00:53:01;15.55;;;7.68;;
41883;SDS011;27566;50.930;5.328;2023-07-22T00:55:27;13.93;;;8.85;;
41883;SDS011;27566;50.930;5.328;2023-07-22T00:57:54;15.32;;;9.55;;
41883;SDS011;27566;50.930;5.328;2023-07-22T01:00:20;17.42;;;11.27;;
41883;SDS011;27566;50.930;5.328;2023-07-22T01:02:49;15.57;;;8.68;;
41883;SDS011;27566;50.930;5.328;2023-07-22T01:05:15;11.32;;;7.97;;
41883;SDS011;27566;50.930;5.328;2023-07-22T01:07:41;13.57;;;8.07;;
41883;SDS011;27566;50.930;5.328;2023-07-22T01:10:07;19.23;;;11.57;;
41883;SDS011;27566;50.930;5.328;2023-07-22T01:12:36;14.63;;;9.98;;
41883;SDS011;27566;50.930;5.328;2023-07-22T01:15:03;19.17;;;11.38;;
41883;SDS011;27566;50.930;5.328;2023-07-22T01:17:32;15.65;;;8.95;;
41883;SDS011;27566;50.930;5.328;2023-07-22T01:19:59;12.30;;;7.30;;
41883;SDS011;27566;50.930;5.328;2023-07-22T01:22:25;13.10;;;9.35;;
41883;SDS011;27566;50.930;5.328;2023-07-22T01:24:53;11.27;;;8.00;;
41883;SDS011;27566;50.930;5.328;2023-07-22T01:27:19;13.60;;;8.00;;
41883;SDS011;27566;50.930;5.328;2023-07-22T01:29:45;13.57;;;8.75;;
41883;SDS011;27566;50.930;5.328;2023-07-22T01:32:11;11.88;;;7.90;;
41883;SDS011;27566;50.930;5.328;2023-07-22T01:34:37;13.32;;;8.15;;
41883;SDS011;27566;50.930;5.328;2023-07-22T01:37:02;14.02;;;9.18;;
41883;SDS011;27566;50.930;5.328;2023-07-22T01:39:29;12.63;;;7.55;;
41883;SDS011;27566;50.930;5.328;2023-07-22T01:41:55;15.82;;;8.23;;
41883;SDS011;27566;50.930;5.328;2023-07-22T01:44:21;15.40;;;9.07;;
41883;SDS011;27566;50.930;5.328;2023-07-22T01:46:46;12.57;;;8.10;;
41883;SDS011;27566;50.930;5.328;2023-07-22T01:49:12;12.93;;;8.40;;
41883;SDS011;27566;50.930;5.328;2023-07-22T01:51:39;15.15;;;8.50;;
41883;SDS011;27566;50.930;5.328;2023-07-22T01:54:08;12.65;;;8.05;;
41883;SDS011;27566;50.930;5.328;2023-07-22T01:56:35;11.65;;;7.70;;
41883;SDS011;27566;50.930;5.328;2023-07-22T01:59:01;13.35;;;8.95;;
41883;SDS011;27566;50.930;5.328;2023-07-22T02:01:27;15.93;;;9.10;;
41883;SDS011;27566;50.930;5.328;2023-07-22T02:03:54;13.55;;;9.55;;
41883;SDS011;27566;50.930;5.328;2023-07-22T02:06:20;11.23;;;7.43;;
41883;SDS011;27566;50.930;5.328;2023-07-22T02:08:48;14.30;;;9.35;;
41883;SDS011;27566;50.930;5.328;2023-07-22T02:11:14;12.32;;;8.40;;
41883;SDS011;27566;50.930;5.328;2023-07-22T02:13:40;13.30;;;8.48;;
41883;SDS011;27566;50.930;5.328;2023-07-22T02:16:05;13.23;;;8.00;;
41883;SDS011;27566;50.930;5.328;2023-07-22T02:18:31;11.82;;;7.70;;
41883;SDS011;27566;50.930;5.328;2023-07-22T02:20:57;10.65;;;7.55;;
41883;SDS011;27566;50.930;5.328;2023-07-22T02:23:23;12.80;;;8.02;;
41883;SDS011;27566;50.930;5.328;2023-07-22T02:25:50;12.15;;;7.95;;
41883;SDS011;27566;50.930;5.328;2023-07-22T02:28:17;14.75;;;9.07;;
41883;SDS011;27566;50.930;5.328;2023-07-22T02:30:50;13.93;;;8.85;;
41883;SDS011;27566;50.930;5.328;2023-07-22T02:33:17;12.10;;;7.72;;
41883;SDS011;27566;50.930;5.328;2023-07-22T02:35:43;14.75;;;8.68;;
41883;SDS011;27566;50.930;5.328;2023-07-22T02:38:10;13.88;;;7.97;;
41883;SDS011;27566;50.930;5.328;2023-07-22T02:40:39;14.95;;;9.63;;
41883;SDS011;27566;50.930;5.328;2023-07-22T02:43:05;13.52;;;8.40;;
41883;SDS011;27566;50.930;5.328;2023-07-22T02:45:32;13.23;;;8.50;;
41883;SDS011;27566;50.930;5.328;2023-07-22T02:48:01;11.73;;;7.82;;
41883;SDS011;27566;50.930;5.328;2023-07-22T02:50:27;14.48;;;9.25;;
41883;SDS011;27566;50.930;5.328;2023-07-22T02:52:53;13.32;;;9.85;;
41883;SDS011;27566;50.930;5.328;2023-07-22T02:55:19;12.82;;;8.02;;
41883;SDS011;27566;50.930;5.328;2023-07-22T02:57:45;14.05;;;8.65;;
41883;SDS011;27566;50.930;5.328;2023-07-22T03:00:11;13.57;;;8.70;;
41883;SDS011;27566;50.930;5.328;2023-07-22T03:02:38;15.77;;;8.95;;
41883;SDS011;27566;50.930;5.328;2023-07-22T03:05:05;14.10;;;8.95;;
41883;SDS011;27566;50.930;5.328;2023-07-22T03:07:38;12.18;;;8.82;;
41883;SDS011;27566;50.930;5.328;2023-07-22T03:10:05;16.25;;;9.85;;
41883;SDS011;27566;50.930;5.328;2023-07-22T03:12:32;14.25;;;8.13;;
41883;SDS011;27566;50.930;5.328;2023-07-22T03:14:58;17.65;;;10.00;;
41883;SDS011;27566;50.930;5.328;2023-07-22T03:17:24;15.40;;;9.32;;
41883;SDS011;27566;50.930;5.328;2023-07-22T03:19:50;17.10;;;10.85;;
41883;SDS011;27566;50.930;5.328;2023-07-22T03:22:16;15.65;;;10.38;;
41883;SDS011;27566;50.930;5.328;2023-07-22T03:24:45;16.55;;;9.55;;
41883;SDS011;27566;50.930;5.328;2023-07-22T03:27:11;15.43;;;9.68;;
41883;SDS011;27566;50.930;5.328;2023-07-22T03:29:38;16.27;;;11.70;;
41883;SDS011;27566;50.930;5.328;2023-07-22T03:32:05;19.60;;;11.35;;
41883;SDS011;27566;50.930;5.328;2023-07-22T03:34:31;16.83;;;10.48;;
41883;SDS011;27566;50.930;5.328;2023-07-22T03:36:57;17.17;;;10.05;;
41883;SDS011;27566;50.930;5.328;2023-07-22T03:39:23;14.40;;;9.10;;
41883;SDS011;27566;50.930;5.328;2023-07-22T03:41:49;16.27;;;10.35;;
41883;SDS011;27566;50.930;5.328;2023-07-22T03:44:15;17.58;;;10.65;;
41883;SDS011;27566;50.930;5.328;2023-07-22T03:46:41;18.58;;;10.32;;
41883;SDS011;27566;50.930;5.328;2023-07-22T03:49:07;18.90;;;11.00;;
41883;SDS011;27566;50.930;5.328;2023-07-22T03:51:32;19.13;;;10.70;;
41883;SDS011;27566;50.930;5.328;2023-07-22T03:53:59;19.67;;;10.20;;
41883;SDS011;27566;50.930;5.328;2023-07-22T03:56:25;17.20;;;10.40;;
41883;SDS011;27566;50.930;5.328;2023-07-22T03:58:51;15.15;;;9.20;;
41883;SDS011;27566;50.930;5.328;2023-07-22T04:01:17;17.88;;;10.65;;
41883;SDS011;27566;50.930;5.328;2023-07-22T04:03:43;16.90;;;10.35;;
41883;SDS011;27566;50.930;5.328;2023-07-22T04:06:09;15.70;;;9.30;;
41883;SDS011;27566;50.930;5.328;2023-07-22T04:08:35;30.70;;;11.35;;
41883;SDS011;27566;50.930;5.328;2023-07-22T04:11:00;21.15;;;10.13;;
41883;SDS011;27566;50.930;5.328;2023-07-22T04:13:26;13.32;;;9.63;;
41883;SDS011;27566;50.930;5.328;2023-07-22T04:15:52;17.13;;;10.35;;
41883;SDS011;27566;50.930;5.328;2023-07-22T04:18:18;21.25;;;11.23;;
41883;SDS011;27566;50.930;5.328;2023-07-22T04:20:45;15.57;;;10.10;;
41883;SDS011;27566;50.930;5.328;2023-07-22T04:23:13;20.27;;;12.02;;
41883;SDS011;27566;50.930;5.328;2023-07-22T04:25:39;15.63;;;8.80;;
41883;SDS011;27566;50.930;5.328;2023-07-22T04:28:06;16.15;;;9.80;;
41883;SDS011;27566;50.930;5.328;2023-07-22T04:30:32;20.27;;;10.85;;
41883;SDS011;27566;50.930;5.328;2023-07-22T04:32:59;19.38;;;10.45;;
41883;SDS011;27566;50.930;5.328;2023-07-22T04:35:25;17.85;;;10.88;;
41883;SDS011;27566;50.930;5.328;2023-07-22T04:37:50;19.33;;;12.35;;
41883;SDS011;27566;50.930;5.328;2023-07-22T04:40:16;13.70;;;8.65;;
41883;SDS011;27566;50.930;5.328;2023-07-22T04:42:43;17.73;;;10.60;;
41883;SDS011;27566;50.930;5.328;2023-07-22T04:45:10;16.88;;;10.85;;
41883;SDS011;27566;50.930;5.328;2023-07-22T04:47:39;16.38;;;8.55;;
41883;SDS011;27566;50.930;5.328;2023-07-22T04:50:06;14.73;;;9.73;;
41883;SDS011;27566;50.930;5.328;2023-07-22T04:52:34;18.90;;;11.15;;
41883;SDS011;27566;50.930;5.328;2023-07-22T04:55:01;16.48;;;10.63;;
41883;SDS011;27566;50.930;5.328;2023-07-22T04:57:43;21.17;;;13.38;;
41883;SDS011;27566;50.930;5.328;2023-07-22T05:00:13;23.23;;;14.27;;
41883;SDS011;27566;50.930;5.328;2023-07-22T05:02:41;17.60;;;11.52;;
41883;SDS011;27566;50.930;5.328;2023-07-22T05:05:11;14.90;;;10.38;;
41883;SDS011;27566;50.930;5.328;2023-07-22T05:07:37;26.73;;;14.43;;
41883;SDS011;27566;50.930;5.328;2023-07-22T05:10:03;21.52;;;12.77;;
41883;SDS011;27566;50.930;5.328;2023-07-22T05:12:29;26.00;;;15.10;;
41883;SDS011;27566;50.930;5.328;2023-07-22T05:14:55;16.83;;;11.65;;
41883;SDS011;27566;50.930;5.328;2023-07-22T05:17:21;20.58;;;13.00;;
41883;SDS011;27566;50.930;5.328;2023-07-22T05:19:47;18.65;;;10.48;;
41883;SDS011;27566;50.930;5.328;2023-07-22T05:22:14;16.27;;;10.30;;
41883;SDS011;27566;50.930;5.328;2023-07-22T05:24:40;25.10;;;12.90;;
41883;SDS011;27566;50.930;5.328;2023-07-22T05:27:06;22.38;;;11.68;;
41883;SDS011;27566;50.930;5.328;2023-07-22T05:29:31;17.00;;;11.77;;
41883;SDS011;27566;50.930;5.328;2023-07-22T05:31:57;16.27;;;11.18;;
41883;SDS011;27566;50.930;5.328;2023-07-22T05:34:23;16.30;;;10.35;;
41883;SDS011;27566;50.930;5.328;2023-07-22T05:36:49;16.52;;;12.50;;
41883;SDS011;27566;50.930;5.328;2023-07-22T05:39:15;14.90;;;9.40;;
41883;SDS011;27566;50.930;5.328;2023-07-22T05:41:42;14.50;;;9.00;;
41883;SDS011;27566;50.930;5.328;2023-07-22T05:44:08;17.48;;;10.50;;
41883;SDS011;27566;50.930;5.328;2023-07-22T05:46:34;18.63;;;11.27;;
41883;SDS011;27566;50.930;5.328;2023-07-22T05:49:00;13.73;;;9.68;;
41883;SDS011;27566;50.930;5.328;2023-07-22T05:51:25;15.63;;;8.93;;
41883;SDS011;27566;50.930;5.328;2023-07-22T05:53:51;17.83;;;10.65;;
41883;SDS011;27566;50.930;5.328;2023-07-22T05:56:17;15.27;;;9.43;;
41883;SDS011;27566;50.930;5.328;2023-07-22T05:58:43;16.13;;;9.65;;
41883;SDS011;27566;50.930;5.328;2023-07-22T06:01:09;13.52;;;8.73;;
41883;SDS011;27566;50.930;5.328;2023-07-22T06:06:46;16.75;;;8.88;;
41883;SDS011;27566;50.930;5.328;2023-07-22T06:09:12;13.95;;;9.20;;
41883;SDS011;27566;50.930;5.328;2023-07-22T06:11:38;18.50;;;9.68;;
41883;SDS011;27566;50.930;5.328;2023-07-22T06:14:03;15.38;;;8.07;;
41883;SDS011;27566;50.930;5.328;2023-07-22T06:16:29;13.05;;;8.25;;
41883;SDS011;27566;50.930;5.328;2023-07-22T06:18:55;13.60;;;9.15;;
41883;SDS011;27566;50.930;5.328;2023-07-22T06:21:21;17.75;;;8.18;;
41883;SDS011;27566;50.930;5.328;2023-07-22T06:23:46;18.85;;;9.52;;
41883;SDS011;27566;50.930;5.328;2023-07-22T06:26:17;14.10;;;7.75;;
41883;SDS011;27566;50.930;5.328;2023-07-22T06:28:43;12.45;;;7.93;;
41883;SDS011;27566;50.930;5.328;2023-07-22T06:31:09;14.35;;;7.60;;
41883;SDS011;27566;50.930;5.328;2023-07-22T06:33:41;13.60;;;7.82;;
41883;SDS011;27566;50.930;5.328;2023-07-22T06:36:11;13.25;;;7.22;;
41883;SDS011;27566;50.930;5.328;2023-07-22T06:38:45;13.63;;;8.80;;
41883;SDS011;27566;50.930;5.328;2023-07-22T06:41:11;16.58;;;8.00;;
41883;SDS011;27566;50.930;5.328;2023-07-22T06:43:37;15.45;;;6.93;;
41883;SDS011;27566;50.930;5.328;2023-07-22T06:46:07;13.30;;;7.55;;
41883;SDS011;27566;50.930;5.328;2023-07-22T06:48:33;12.25;;;7.28;;
41883;SDS011;27566;50.930;5.328;2023-07-22T06:51:02;11.15;;;6.95;;
41883;SDS011;27566;50.930;5.328;2023-07-22T06:53:28;16.15;;;8.48;;
41883;SDS011;27566;50.930;5.328;2023-07-22T06:55:54;12.73;;;7.47;;
41883;SDS011;27566;50.930;5.328;2023-07-22T06:58:24;15.40;;;9.15;;
41883;SDS011;27566;50.930;5.328;2023-07-22T07:00:56;12.95;;;8.18;;
41883;SDS011;27566;50.930;5.328;2023-07-22T07:03:22;15.43;;;8.48;;
41883;SDS011;27566;50.930;5.328;2023-07-22T07:05:54;14.70;;;7.45;;
41883;SDS011;27566;50.930;5.328;2023-07-22T07:08:21;14.05;;;8.13;;
41883;SDS011;27566;50.930;5.328;2023-07-22T07:10:50;17.42;;;7.82;;
41883;SDS011;27566;50.930;5.328;2023-07-22T07:13:17;14.30;;;7.80;;
41883;SDS011;27566;50.930;5.328;2023-07-22T07:15:48;15.15;;;7.40;;
41883;SDS011;27566;50.930;5.328;2023-07-22T07:18:21;12.90;;;8.57;;
41883;SDS011;27566;50.930;5.328;2023-07-22T07:20:50;13.60;;;7.68;;
41883;SDS011;27566;50.930;5.328;2023-07-22T07:23:20;12.23;;;7.78;;
41883;SDS011;27566;50.930;5.328;2023-07-22T07:25:46;16.77;;;8.10;;
41883;SDS011;27566;50.930;5.328;2023-07-22T07:28:20;10.70;;;6.43;;
41883;SDS011;27566;50.930;5.328;2023-07-22T07:30:51;11.25;;;6.70;;
41883;SDS011;27566;50.930;5.328;2023-07-22T07:33:17;13.85;;;6.57;;
41883;SDS011;27566;50.930;5.328;2023-07-22T07:35:46;11.98;;;6.93;;
41883;SDS011;27566;50.930;5.328;2023-07-22T07:38:12;9.63;;;6.05;;
41883;SDS011;27566;50.930;5.328;2023-07-22T07:40:38;13.43;;;6.82;;
41883;SDS011;27566;50.930;5.328;2023-07-22T07:43:08;15.13;;;6.53;;
41883;SDS011;27566;50.930;5.328;2023-07-22T07:45:38;10.75;;;6.43;;
41883;SDS011;27566;50.930;5.328;2023-07-22T07:48:05;11.38;;;6.53;;
41883;SDS011;27566;50.930;5.328;2023-07-22T07:50:37;8.48;;;5.65;;
41883;SDS011;27566;50.930;5.328;2023-07-22T07:53:03;11.10;;;6.37;;
41883;SDS011;27566;50.930;5.328;2023-07-22T07:55:29;11.70;;;6.47;;
41883;SDS011;27566;50.930;5.328;2023-07-22T07:57:59;12.32;;;6.35;;
41883;SDS011;27566;50.930;5.328;2023-07-22T08:00:25;12.68;;;6.25;;
41883;SDS011;27566;50.930;5.328;2023-07-22T08:02:56;11.43;;;5.30;;
41883;SDS011;27566;50.930;5.328;2023-07-22T08:05:22;7.80;;;5.00;;
41883;SDS011;27566;50.930;5.328;2023-07-22T08:07:51;10.65;;;5.10;;
41883;SDS011;27566;50.930;5.328;2023-07-22T08:10:17;10.07;;;5.28;;
41883;SDS011;27566;50.930;5.328;2023-07-22T08:12:43;13.50;;;5.40;;
41883;SDS011;27566;50.930;5.328;2023-07-22T08:15:13;9.70;;;5.57;;
41883;SDS011;27566;50.930;5.328;2023-07-22T08:17:39;10.20;;;5.13;;
41883;SDS011;27566;50.930;5.328;2023-07-22T08:20:10;9.38;;;5.57;;
41883;SDS011;27566;50.930;5.328;2023-07-22T08:22:36;9.23;;;4.43;;
41883;SDS011;27566;50.930;5.328;2023-07-22T08:25:07;8.20;;;5.10;;
41883;SDS011;27566;50.930;5.328;2023-07-22T08:27:33;10.68;;;4.93;;
41883;SDS011;27566;50.930;5.328;2023-07-22T08:30:02;10.60;;;5.60;;
41883;SDS011;27566;50.930;5.328;2023-07-22T08:32:28;11.07;;;4.20;;
41883;SDS011;27566;50.930;5.328;2023-07-22T08:34:59;6.82;;;4.20;;
41883;SDS011;27566;50.930;5.328;2023-07-22T08:37:25;10.18;;;3.95;;
41883;SDS011;27566;50.930;5.328;2023-07-22T08:39:51;9.23;;;3.92;;
41883;SDS011;27566;50.930;5.328;2023-07-22T08:42:21;14.52;;;5.10;;
41883;SDS011;27566;50.930;5.328;2023-07-22T08:44:56;11.15;;;4.18;;
41883;SDS011;27566;50.930;5.328;2023-07-22T08:47:29;7.32;;;3.72;;
41883;SDS011;27566;50.930;5.328;2023-07-22T08:50:01;7.70;;;3.78;;
41883;SDS011;27566;50.930;5.328;2023-07-22T08:52:35;9.15;;;3.85;;
41883;SDS011;27566;50.930;5.328;2023-07-22T08:55:02;10.23;;;3.90;;
41883;SDS011;27566;50.930;5.328;2023-07-22T08:57:32;9.35;;;4.15;;
41883;SDS011;27566;50.930;5.328;2023-07-22T08:59:59;7.30;;;3.10;;
41883;SDS011;27566;50.930;5.328;2023-07-22T09:02:29;6.15;;;3.55;;
41883;SDS011;27566;50.930;5.328;2023-07-22T09:04:55;8.05;;;3.88;;
41883;SDS011;27566;50.930;5.328;2023-07-22T09:07:26;7.68;;;3.95;;
41883;SDS011;27566;50.930;5.328;2023-07-22T09:09:52;8.00;;;4.03;;
41883;SDS011;27566;50.930;5.328;2023-07-22T09:12:23;9.10;;;3.70;;
41883;SDS011;27566;50.930;5.328;2023-07-22T09:14:50;8.55;;;3.50;;
41883;SDS011;27566;50.930;5.328;2023-07-22T09:17:22;12.50;;;4.10;;
41883;SDS011;27566;50.930;5.328;2023-07-22T09:19:54;6.88;;;3.50;;
41883;SDS011;27566;50.930;5.328;2023-07-22T09:22:24;5.68;;;3.05;;
41883;SDS011;27566;50.930;5.328;2023-07-22T09:24:54;5.70;;;2.78;;
41883;SDS011;27566;50.930;5.328;2023-07-22T09:27:40;4.78;;;2.38;;
41883;SDS011;27566;50.930;5.328;2023-07-22T09:32:56;6.88;;;3.47;;
41883;SDS011;27566;50.930;5.328;2023-07-22T09:35:25;6.32;;;2.88;;
41883;SDS011;27566;50.930;5.328;2023-07-22T09:37:56;7.07;;;3.08;;
41883;SDS011;27566;50.930;5.328;2023-07-22T09:40:26;5.30;;;2.90;;
41883;SDS011;27566;50.930;5.328;2023-07-22T09:43:01;6.28;;;3.28;;
41883;SDS011;27566;50.930;5.328;2023-07-22T09:45:29;8.88;;;2.50;;
41883;SDS011;27566;50.930;5.328;2023-07-22T09:48:00;4.15;;;2.38;;
41883;SDS011;27566;50.930;5.328;2023-07-22T09:50:26;5.90;;;2.53;;
41883;SDS011;27566;50.930;5.328;2023-07-22T09:52:57;5.93;;;2.28;;
41883;SDS011;27566;50.930;5.328;2023-07-22T09:55:29;4.10;;;2.50;;
41883;SDS011;27566;50.930;5.328;2023-07-22T09:58:00;6.85;;;2.58;;
41883;SDS011;27566;50.930;5.328;2023-07-22T10:00:28;8.00;;;2.65;;
41883;SDS011;27566;50.930;5.328;2023-07-22T10:02:59;6.63;;;2.95;;
41883;SDS011;27566;50.930;5.328;2023-07-22T10:05:26;5.88;;;2.38;;
41883;SDS011;27566;50.930;5.328;2023-07-22T10:07:57;4.03;;;1.88;;
41883;SDS011;27566;50.930;5.328;2023-07-22T10:13:00;3.28;;;2.05;;
41883;SDS011;27566;50.930;5.328;2023-07-22T10:15:28;5.97;;;2.25;;
41883;SDS011;27566;50.930;5.328;2023-07-22T10:17:55;5.05;;;2.40;;
41883;SDS011;27566;50.930;5.328;2023-07-22T10:20:22;4.25;;;1.92;;
41883;SDS011;27566;50.930;5.328;2023-07-22T10:22:49;4.30;;;1.98;;
41883;SDS011;27566;50.930;5.328;2023-07-22T10:25:18;5.97;;;1.98;;
41883;SDS011;27566;50.930;5.328;2023-07-22T10:27:44;5.82;;;2.45;;
41883;SDS011;27566;50.930;5.328;2023-07-22T10:30:12;6.07;;;2.67;;
41883;SDS011;27566;50.930;5.328;2023-07-22T10:32:40;5.85;;;1.90;;
41883;SDS011;27566;50.930;5.328;2023-07-22T10:35:18;4.60;;;2.08;;
41883;SDS011;27566;50.930;5.328;2023-07-22T10:38:17;4.28;;;2.00;;
41883;SDS011;27566;50.930;5.328;2023-07-22T10:41:00;4.15;;;1.88;;
41883;SDS011;27566;50.930;5.328;2023-07-22T10:43:30;5.57;;;1.75;;
41883;SDS011;27566;50.930;5.328;2023-07-22T10:45:57;4.88;;;2.13;;
41883;SDS011;27566;50.930;5.328;2023-07-22T10:48:34;3.60;;;1.67;;
41883;SDS011;27566;50.930;5.328;2023-07-22T10:51:05;3.22;;;1.73;;
41883;SDS011;27566;50.930;5.328;2023-07-22T10:53:41;3.85;;;1.80;;
41883;SDS011;27566;50.930;5.328;2023-07-22T10:56:25;11.10;;;2.08;;
41883;SDS011;27566;50.930;5.328;2023-07-22T11:01:21;4.93;;;1.83;;
41883;SDS011;27566;50.930;5.328;2023-07-22T11:11:59;7.55;;;2.75;;
41883;SDS011;27566;50.930;5.328;2023-07-22T11:14:27;3.95;;;2.33;;
41883;SDS011;27566;50.930;5.328;2023-07-22T11:16:57;4.47;;;2.33;;
41883;SDS011;27566;50.930;5.328;2023-07-22T11:19:24;4.35;;;2.08;;
41883;SDS011;27566;50.930;5.328;2023-07-22T11:21:51;5.85;;;2.60;;
41883;SDS011;27566;50.930;5.328;2023-07-22T11:24:18;4.88;;;2.20;;
41883;SDS011;27566;50.930;5.328;2023-07-22T11:26:48;7.70;;;3.58;;
41883;SDS011;27566;50.930;5.328;2023-07-22T11:29:14;5.78;;;2.40;;
41883;SDS011;27566;50.930;5.328;2023-07-22T11:31:41;4.47;;;2.08;;
41883;SDS011;27566;50.930;5.328;2023-07-22T11:34:10;4.28;;;2.22;;
41883;SDS011;27566;50.930;5.328;2023-07-22T11:36:46;5.18;;;1.88;;
41883;SDS011;27566;50.930;5.328;2023-07-22T11:39:16;6.10;;;2.67;;
41883;SDS011;27566;50.930;5.328;2023-07-22T11:41:46;3.63;;;2.40;;
41883;SDS011;27566;50.930;5.328;2023-07-22T11:44:14;5.53;;;2.40;;
41883;SDS011;27566;50.930;5.328;2023-07-22T11:49:23;4.47;;;1.60;;
41883;SDS011;27566;50.930;5.328;2023-07-22T11:51:50;5.50;;;2.05;;
41883;SDS011;27566;50.930;5.328;2023-07-22T11:54:16;3.72;;;1.90;;
41883;SDS011;27566;50.930;5.328;2023-07-22T11:56:43;4.82;;;1.98;;
41883;SDS011;27566;50.930;5.328;2023-07-22T11:59:08;5.32;;;2.42;;
41883;SDS011;27566;50.930;5.328;2023-07-22T12:01:34;4.75;;;2.25;;
41883;SDS011;27566;50.930;5.328;2023-07-22T12:04:00;10.88;;;2.70;;
41883;SDS011;27566;50.930;5.328;2023-07-22T12:06:26;4.53;;;1.80;;
41883;SDS011;27566;50.930;5.328;2023-07-22T12:08:53;2.47;;;1.63;;
41883;SDS011;27566;50.930;5.328;2023-07-22T12:11:20;3.25;;;1.77;;
41883;SDS011;27566;50.930;5.328;2023-07-22T12:13:47;4.35;;;1.77;;
41883;SDS011;27566;50.930;5.328;2023-07-22T12:16:21;4.50;;;1.65;;
41883;SDS011;27566;50.930;5.328;2023-07-22T12:18:54;3.60;;;1.63;;
41883;SDS011;27566;50.930;5.328;2023-07-22T12:21:21;2.28;;;1.55;;
41883;SDS011;27566;50.930;5.328;2023-07-22T12:23:47;3.33;;;2.00;;
41883;SDS011;27566;50.930;5.328;2023-07-22T12:26:13;3.63;;;1.70;;
41883;SDS011;27566;50.930;5.328;2023-07-22T12:28:39;3.60;;;1.52;;
41883;SDS011;27566;50.930;5.328;2023-07-22T12:31:04;4.65;;;2.05;;
41883;SDS011;27566;50.930;5.328;2023-07-22T12:33:30;4.38;;;1.73;;
41883;SDS011;27566;50.930;5.328;2023-07-22T12:35:56;6.10;;;2.20;;
41883;SDS011;27566;50.930;5.328;2023-07-22T12:38:22;5.50;;;1.58;;
41883;SDS011;27566;50.930;5.328;2023-07-22T12:40:49;5.57;;;2.00;;
41883;SDS011;27566;50.930;5.328;2023-07-22T12:43:14;4.88;;;2.22;;
41883;SDS011;27566;50.930;5.328;2023-07-22T12:45:40;3.60;;;1.65;;
41883;SDS011;27566;50.930;5.328;2023-07-22T12:48:06;4.68;;;1.92;;
41883;SDS011;27566;50.930;5.328;2023-07-22T12:50:32;3.38;;;1.73;;
41883;SDS011;27566;50.930;5.328;2023-07-22T12:52:58;5.43;;;2.22;;
41883;SDS011;27566;50.930;5.328;2023-07-22T12:55:24;4.28;;;1.70;;
41883;SDS011;27566;50.930;5.328;2023-07-22T12:57:51;2.97;;;1.83;;
41883;SDS011;27566;50.930;5.328;2023-07-22T13:00:17;3.03;;;1.88;;
41883;SDS011;27566;50.930;5.328;2023-07-22T13:02:43;5.40;;;2.78;;
41883;SDS011;27566;50.930;5.328;2023-07-22T13:05:08;4.30;;;1.90;;
41883;SDS011;27566;50.930;5.328;2023-07-22T13:07:34;4.10;;;1.83;;
41883;SDS011;27566;50.930;5.328;2023-07-22T13:10:00;3.72;;;2.30;;
41883;SDS011;27566;50.930;5.328;2023-07-22T13:12:28;3.22;;;2.00;;
41883;SDS011;27566;50.930;5.328;2023-07-22T13:14:54;4.65;;;2.20;;
41883;SDS011;27566;50.930;5.328;2023-07-22T13:17:20;6.40;;;1.92;;
41883;SDS011;27566;50.930;5.328;2023-07-22T13:19:46;4.15;;;2.30;;
41883;SDS011;27566;50.930;5.328;2023-07-22T13:22:12;4.53;;;2.15;;
41883;SDS011;27566;50.930;5.328;2023-07-22T13:24:38;6.65;;;2.63;;
41883;SDS011;27566;50.930;5.328;2023-07-22T13:27:04;4.72;;;2.42;;
41883;SDS011;27566;50.930;5.328;2023-07-22T13:29:30;4.32;;;2.58;;
41883;SDS011;27566;50.930;5.328;2023-07-22T13:31:56;6.72;;;2.45;;
41883;SDS011;27566;50.930;5.328;2023-07-22T13:34:22;5.57;;;2.50;;
41883;SDS011;27566;50.930;5.328;2023-07-22T13:36:47;4.25;;;2.30;;
41883;SDS011;27566;50.930;5.328;2023-07-22T13:39:13;5.68;;;2.60;;
41883;SDS011;27566;50.930;5.328;2023-07-22T13:41:39;9.40;;;2.63;;
41883;SDS011;27566;50.930;5.328;2023-07-22T13:44:05;5.85;;;2.53;;
41883;SDS011;27566;50.930;5.328;2023-07-22T13:46:31;4.90;;;2.60;;
41883;SDS011;27566;50.930;5.328;2023-07-22T13:48:57;6.18;;;2.60;;
41883;SDS011;27566;50.930;5.328;2023-07-22T13:51:22;6.28;;;2.40;;
41883;SDS011;27566;50.930;5.328;2023-07-22T13:53:48;4.18;;;2.30;;
41883;SDS011;27566;50.930;5.328;2023-07-22T13:56:17;5.82;;;2.53;;
41883;SDS011;27566;50.930;5.328;2023-07-22T13:58:43;6.10;;;3.55;;
41883;SDS011;27566;50.930;5.328;2023-07-22T14:01:08;4.65;;;2.45;;
41883;SDS011;27566;50.930;5.328;2023-07-22T14:03:34;4.07;;;2.53;;
41883;SDS011;27566;50.930;5.328;2023-07-22T14:06:00;4.32;;;2.47;;
41883;SDS011;27566;50.930;5.328;2023-07-22T14:08:25;5.13;;;2.53;;
41883;SDS011;27566;50.930;5.328;2023-07-22T14:10:51;4.57;;;2.50;;
41883;SDS011;27566;50.930;5.328;2023-07-22T14:13:18;5.03;;;2.35;;
41883;SDS011;27566;50.930;5.328;2023-07-22T14:15:43;4.75;;;3.00;;
41883;SDS011;27566;50.930;5.328;2023-07-22T14:18:10;5.28;;;2.38;;
41883;SDS011;27566;50.930;5.328;2023-07-22T14:20:41;5.43;;;2.60;;
41883;SDS011;27566;50.930;5.328;2023-07-22T14:23:08;4.50;;;2.40;;
41883;SDS011;27566;50.930;5.328;2023-07-22T14:25:33;4.57;;;2.20;;
41883;SDS011;27566;50.930;5.328;2023-07-22T14:27:59;5.25;;;2.25;;
41883;SDS011;27566;50.930;5.328;2023-07-22T14:30:25;4.55;;;2.90;;
41883;SDS011;27566;50.930;5.328;2023-07-22T14:32:51;6.13;;;2.22;;
41883;SDS011;27566;50.930;5.328;2023-07-22T14:35:16;4.05;;;1.98;;
41883;SDS011;27566;50.930;5.328;2023-07-22T14:37:42;4.60;;;2.33;;
41883;SDS011;27566;50.930;5.328;2023-07-22T14:40:08;3.92;;;2.08;;
41883;SDS011;27566;50.930;5.328;2023-07-22T14:42:34;5.10;;;1.80;;
41883;SDS011;27566;50.930;5.328;2023-07-22T14:45:00;3.53;;;1.73;;
41883;SDS011;27566;50.930;5.328;2023-07-22T14:47:26;2.67;;;1.50;;
41883;SDS011;27566;50.930;5.328;2023-07-22T14:49:51;4.60;;;2.58;;
41883;SDS011;27566;50.930;5.328;2023-07-22T14:52:17;6.70;;;2.40;;
41883;SDS011;27566;50.930;5.328;2023-07-22T14:54:43;5.47;;;2.15;;
41883;SDS011;27566;50.930;5.328;2023-07-22T14:57:09;4.90;;;2.38;;
41883;SDS011;27566;50.930;5.328;2023-07-22T14:59:34;5.43;;;1.70;;
41883;SDS011;27566;50.930;5.328;2023-07-22T15:02:00;5.85;;;2.10;;